Time;durP1;ratioP1;P1;durP2;ratioP2;P2;SDS_P1;SDS_P2;PMS_P1;PMS_P2;Temp;Humidity;BMP_temperature;BMP_pressure;BME280_temperature;BME280_humidity;BME280_pressure;Samples;Min_cycle;Max_cycle;Signal;HPM_P1;HPM_P2
2022/04/17 00:00:27;;;;;;;4.85;4.15;;;10.20;99.90;;;;;;5117976;28;20036;-61
2022/04/17 00:02:54;;;;;;;5.47;4.22;;;10.10;99.90;;;;;;5117880;28;20031;-59
2022/04/17 00:05:20;;;;;;;5.55;4.53;;;10.20;99.90;;;;;;5118556;28;20093;-60
2022/04/17 00:07:46;;;;;;;7.88;4.85;;;10.10;99.90;;;;;;5117768;28;20106;-59
2022/04/17 00:10:12;;;;;;;5.53;4.70;;;9.90;99.90;;;;;;5118305;28;20131;-60
2022/04/17 00:12:39;;;;;;;6.25;4.68;;;9.90;99.90;;;;;;5118333;28;20047;-59
2022/04/17 00:15:06;;;;;;;5.68;4.38;;;9.80;99.90;;;;;;5118275;28;20027;-59
2022/04/17 00:17:32;;;;;;;5.35;4.30;;;9.70;99.90;;;;;;5117520;28;20038;-61
2022/04/17 00:19:58;;;;;;;5.43;4.70;;;9.60;99.90;;;;;;5117525;28;20035;-61
2022/04/17 00:22:25;;;;;;;5.93;4.80;;;9.60;99.90;;;;;;5117380;28;20024;-61
2022/04/17 00:24:52;;;;;;;8.38;4.68;;;9.50;99.90;;;;;;5117409;28;20110;-60
2022/04/17 00:27:18;;;;;;;5.25;4.60;;;9.50;99.90;;;;;;5100425;28;20394;-61
2022/04/17 00:29:44;;;;;;;8.95;6.40;;;9.50;99.90;;;;;;5117930;28;20417;-60
2022/04/17 00:32:13;;;;;;;6.93;5.20;;;9.50;99.90;;;;;;5117191;28;20078;-60
2022/04/17 00:34:39;;;;;;;5.70;4.88;;;9.50;99.90;;;;;;5117275;28;20035;-60
2022/04/17 00:37:05;;;;;;;5.97;4.47;;;9.40;99.90;;;;;;5117125;28;20399;-60
2022/04/17 00:39:31;;;;;;;5.35;4.65;;;9.40;99.90;;;;;;5117249;28;20063;-61
2022/04/17 00:42:00;;;;;;;4.95;4.30;;;9.40;99.90;;;;;;5117065;28;20038;-61
2022/04/17 00:44:26;;;;;;;5.45;4.78;;;9.30;99.90;;;;;;5117072;28;20341;-60
2022/04/17 00:46:53;;;;;;;5.85;4.30;;;9.30;99.90;;;;;;5117775;28;20102;-60
2022/04/17 00:49:18;;;;;;;5.38;4.57;;;9.20;99.90;;;;;;5116988;28;20035;-60
2022/04/17 00:51:47;;;;;;;5.60;4.38;;;9.20;99.90;;;;;;5117822;28;20046;-60
2022/04/17 00:54:14;;;;;;;4.60;4.20;;;9.20;99.90;;;;;;5118262;28;20383;-60
2022/04/17 00:56:41;;;;;;;5.03;4.53;;;9.20;99.90;;;;;;5117668;28;20104;-61
2022/04/17 00:59:09;;;;;;;5.65;4.50;;;9.10;99.90;;;;;;5117647;28;20035;-60
2022/04/17 01:01:37;;;;;;;6.28;4.30;;;9.00;99.90;;;;;;5116867;28;20040;-60
2022/04/17 01:04:04;;;;;;;6.13;4.75;;;9.00;99.90;;;;;;5116930;28;20031;-60
2022/04/17 01:06:34;;;;;;;6.13;4.78;;;8.90;99.90;;;;;;5099953;28;20031;-60
2022/04/17 01:09:01;;;;;;;5.15;4.30;;;8.90;99.90;;;;;;5117457;28;20103;-60
2022/04/17 01:11:29;;;;;;;6.05;4.40;;;8.80;99.90;;;;;;5117476;28;20027;-57
2022/04/17 01:13:55;;;;;;;5.38;4.85;;;8.80;99.90;;;;;;5116739;28;20015;-59
2022/04/17 01:16:25;;;;;;;6.00;4.70;;;8.80;99.90;;;;;;5116759;28;20034;-61
2022/04/17 01:18:57;;;;;;;5.22;4.63;;;8.70;99.90;;;;;;5117943;28;20119;-60
2022/04/17 01:21:24;;;;;;;5.32;4.75;;;8.60;99.90;;;;;;5117414;28;20031;-62
2022/04/17 01:29:20;;;;;;;5.97;4.97;;;8.60;99.90;;;;;;5116502;28;20122;-60
2022/04/17 01:31:49;;;;;;;7.43;5.10;;;8.50;99.90;;;;;;5117190;28;20156;-60
2022/04/17 01:34:19;;;;;;;6.15;4.55;;;8.50;99.90;;;;;;5116568;28;20042;-60
2022/04/17 01:36:46;;;;;;;8.18;5.38;;;8.40;99.90;;;;;;5116480;28;20414;-60
2022/04/17 01:39:13;;;;;;;5.90;4.85;;;8.40;99.90;;;;;;5117480;28;20315;-60
2022/04/17 01:41:39;;;;;;;6.07;5.18;;;8.30;99.90;;;;;;5120175;28;20044;-60
2022/04/17 01:44:06;;;;;;;7.07;5.45;;;8.30;99.90;;;;;;5120439;28;20062;-60
2022/04/17 01:46:33;;;;;;;6.63;5.70;;;8.30;99.90;;;;;;5103600;28;20050;-60
2022/04/17 01:48:59;;;;;;;5.85;5.15;;;8.30;99.90;;;;;;5103673;28;20047;-61
2022/04/17 01:51:25;;;;;;;6.25;5.53;;;8.30;99.90;;;;;;5103611;28;20350;-60
2022/04/17 01:53:51;;;;;;;7.30;5.78;;;8.20;99.90;;;;;;5120472;28;20024;-60
2022/04/17 01:56:17;;;;;;;6.13;5.45;;;8.20;99.90;;;;;;5120603;28;20042;-58
2022/04/17 01:58:42;;;;;;;6.93;4.95;;;8.20;99.90;;;;;;5120336;28;20084;-60
2022/04/17 02:01:08;;;;;;;6.50;5.25;;;8.20;99.90;;;;;;5120381;28;20027;-60
2022/04/17 02:03:36;;;;;;;8.77;5.78;;;8.20;99.90;;;;;;5120854;28;20044;-60
2022/04/17 02:06:03;;;;;;;6.38;5.32;;;8.10;99.90;;;;;;5120117;28;20031;-61
2022/04/17 02:08:28;;;;;;;6.95;5.32;;;8.00;99.90;;;;;;5120765;28;20034;-58
2022/04/17 02:10:57;;;;;;;8.18;5.43;;;7.90;99.90;;;;;;5120958;28;20036;-58
2022/04/17 02:13:23;;;;;;;6.10;5.45;;;7.90;99.90;;;;;;5121226;28;20055;-58
2022/04/17 02:15:53;;;;;;;6.18;5.22;;;7.90;99.90;;;;;;5120423;28;20070;-58
2022/04/17 02:18:22;;;;;;;7.50;5.30;;;7.90;99.90;;;;;;5120666;28;20019;-59
2022/04/17 02:20:48;;;;;;;6.25;5.18;;;8.00;99.90;;;;;;5120510;28;20031;-58
2022/04/17 02:23:14;;;;;;;5.93;5.32;;;8.00;99.90;;;;;;5102725;28;20414;-58
2022/04/17 02:25:40;;;;;;;6.53;5.07;;;7.80;99.90;;;;;;5102699;28;20027;-58
2022/04/17 02:28:07;;;;;;;7.03;5.50;;;7.80;99.90;;;;;;5119781;28;20130;-59
2022/04/17 02:30:33;;;;;;;6.47;4.90;;;7.90;99.90;;;;;;5102479;28;20031;-59
2022/04/17 02:33:00;;;;;;;7.95;5.53;;;7.80;99.90;;;;;;5120338;28;20119;-58
2022/04/17 02:35:25;;;;;;;7.38;5.28;;;7.90;99.90;;;;;;5119490;28;20073;-59
2022/04/17 02:37:51;;;;;;;6.70;5.20;;;7.80;99.90;;;;;;5120263;28;20403;-59
2022/04/17 02:40:17;;;;;;;5.28;4.78;;;7.80;99.90;;;;;;5120173;28;20106;-59
2022/04/17 02:42:43;;;;;;;13.63;5.30;;;7.70;99.90;;;;;;5102458;28;20042;-59
2022/04/17 02:45:09;;;;;;;6.05;4.97;;;7.60;99.90;;;;;;5120118;28;20330;-60
2022/04/17 02:47:45;;;;;;;6.70;5.00;;;7.50;99.90;;;;;;5120020;28;20366;-59
2022/04/17 02:50:16;;;;;;;7.18;5.07;;;7.50;99.90;;;;;;5120274;28;20043;-59
2022/04/17 02:52:42;;;;;;;5.80;5.18;;;7.40;99.90;;;;;;5117968;28;20027;-60
2022/04/17 02:55:09;;;;;;;7.43;5.35;;;7.30;99.90;;;;;;5102146;28;20034;-59
2022/04/17 02:57:38;;;;;;;6.43;5.30;;;7.30;99.90;;;;;;5119817;28;20092;-59
2022/04/17 03:00:09;;;;;;;8.15;5.43;;;7.30;99.90;;;;;;5119019;28;20093;-59
2022/04/17 03:05:36;;;;;;;6.55;5.50;;;7.20;99.90;;;;;;5104647;28;20092;-60
2022/04/17 03:08:04;;;;;;;6.35;5.30;;;7.20;99.90;;;;;;5119064;28;20040;-60
2022/04/17 03:10:30;;;;;;;7.50;5.47;;;7.20;99.90;;;;;;5119298;28;20036;-59
2022/04/17 03:12:57;;;;;;;7.03;4.85;;;7.20;99.90;;;;;;5119572;28;20023;-59
2022/04/17 03:15:23;;;;;;;6.90;5.47;;;7.30;99.90;;;;;;5118831;28;20088;-59
2022/04/17 03:17:49;;;;;;;8.32;5.13;;;7.30;99.90;;;;;;5118657;28;20451;-59
2022/04/17 03:20:15;;;;;;;6.80;5.38;;;7.30;99.90;;;;;;5101592;28;20038;-60
2022/04/17 03:22:42;;;;;;;6.32;4.90;;;7.30;99.90;;;;;;5119443;28;20395;-59
2022/04/17 03:25:09;;;;;;;6.32;5.00;;;7.30;99.90;;;;;;5118696;28;20050;-59
2022/04/17 03:27:35;;;;;;;6.13;4.82;;;7.30;99.90;;;;;;5119197;28;20298;-59
2022/04/17 03:30:01;;;;;;;8.65;5.30;;;7.20;99.90;;;;;;5118392;28;20027;-59
2022/04/17 03:32:27;;;;;;;5.93;5.10;;;7.10;99.90;;;;;;5118410;28;20039;-59
2022/04/17 03:34:52;;;;;;;6.78;5.00;;;7.10;99.90;;;;;;5118378;28;20353;-60
2022/04/17 03:37:19;;;;;;;5.53;4.95;;;7.00;99.90;;;;;;5119088;28;20164;-60
2022/04/17 03:39:45;;;;;;;6.32;4.80;;;7.00;99.90;;;;;;5119048;28;20054;-60
2022/04/17 03:42:10;;;;;;;7.70;4.93;;;7.00;99.90;;;;;;5119157;28;20027;-60
2022/04/17 03:44:36;;;;;;;5.95;4.95;;;6.90;99.90;;;;;;5118112;28;20062;-60
2022/04/17 03:47:02;;;;;;;5.93;4.88;;;7.00;99.90;;;;;;5101230;28;20468;-60
2022/04/17 03:49:31;;;;;;;5.80;4.60;;;7.00;99.90;;;;;;5118920;28;20114;-60
2022/04/17 03:51:57;;;;;;;7.82;4.78;;;6.90;99.90;;;;;;5118723;28;20133;-60
2022/04/17 03:54:23;;;;;;;5.57;4.68;;;6.90;99.90;;;;;;5118860;28;20062;-60
2022/04/17 03:56:49;;;;;;;6.88;4.88;;;6.90;99.90;;;;;;5118791;28;20085;-60
2022/04/17 03:59:14;;;;;;;6.15;5.07;;;6.90;99.90;;;;;;5118026;28;20458;-60
2022/04/17 04:01:40;;;;;;;7.30;5.10;;;6.80;99.90;;;;;;5118539;28;20042;-60
2022/04/17 04:04:06;;;;;;;6.45;4.47;;;6.80;99.90;;;;;;5117467;28;20048;-60
2022/04/17 04:06:33;;;;;;;7.55;5.10;;;6.70;99.90;;;;;;5118033;28;20360;-60
2022/04/17 04:08:59;;;;;;;5.30;4.43;;;6.70;99.90;;;;;;5118586;28;20406;-60
2022/04/17 04:11:25;;;;;;;8.15;4.90;;;6.70;99.90;;;;;;5118412;28;20028;-60
2022/04/17 04:13:50;;;;;;;5.70;4.30;;;6.60;99.90;;;;;;5117763;28;20098;-60
2022/04/17 04:16:16;;;;;;;5.40;4.90;;;6.60;99.90;;;;;;5118510;28;20031;-60
2022/04/17 04:18:42;;;;;;;5.70;4.10;;;6.60;99.90;;;;;;5118227;28;20073;-60
2022/04/17 04:21:08;;;;;;;5.22;4.60;;;6.50;99.90;;;;;;5117351;28;20115;-59
2022/04/17 04:23:35;;;;;;;8.00;4.85;;;6.50;99.90;;;;;;5118153;28;20035;-60
2022/04/17 04:26:02;;;;;;;6.63;4.80;;;6.50;99.90;;;;;;5117485;28;20040;-60
2022/04/17 04:28:36;;;;;;;6.65;4.65;;;6.40;99.90;;;;;;5117056;28;20475;-60
2022/04/17 04:31:09;;;;;;;7.60;4.60;;;6.50;99.90;;;;;;5101333;28;20036;-60
2022/04/17 04:33:37;;;;;;;6.45;5.03;;;6.40;99.90;;;;;;5117264;28;20406;-60
2022/04/17 04:36:05;;;;;;;6.72;4.90;;;6.40;99.90;;;;;;5117732;28;20299;-60
2022/04/17 04:38:31;;;;;;;5.90;4.80;;;6.30;99.90;;;;;;5117943;28;20024;-60
2022/04/17 04:40:59;;;;;;;5.80;4.63;;;6.30;99.90;;;;;;5117832;28;20027;-60
2022/04/17 04:43:25;;;;;;;6.35;4.90;;;6.30;99.90;;;;;;5116964;28;20055;-60
2022/04/17 04:46:06;;;;;;;6.78;5.22;;;6.30;99.90;;;;;;5118336;28;20034;-60
2022/04/17 04:51:25;;;;;;;4.90;3.42;;;6.20;99.90;;;;;;5117641;28;20048;-60
2022/04/17 04:53:52;;;;;;;7.82;4.78;;;6.30;99.90;;;;;;5117556;28;20032;-60
2022/04/17 04:56:19;;;;;;;5.70;4.88;;;6.20;99.90;;;;;;5117695;28;20043;-60
2022/04/17 04:58:45;;;;;;;5.30;4.78;;;6.20;99.90;;;;;;5117595;28;20040;-61
2022/04/17 05:01:12;;;;;;;11.32;5.20;;;6.20;99.90;;;;;;5116919;28;20027;-60
2022/04/17 05:03:38;;;;;;;6.65;4.82;;;6.10;99.90;;;;;;5117669;28;20027;-61
2022/04/17 05:06:04;;;;;;;7.25;4.47;;;6.10;99.90;;;;;;5116798;28;20366;-61
2022/04/17 05:08:30;;;;;;;10.18;5.22;;;6.10;99.90;;;;;;5099992;28;20110;-61
2022/04/17 05:10:56;;;;;;;5.72;4.50;;;6.10;99.90;;;;;;5116636;28;20115;-61
2022/04/17 05:13:25;;;;;;;5.75;4.40;;;6.10;99.90;;;;;;5117330;28;20036;-61
2022/04/17 05:15:51;;;;;;;4.50;4.10;;;6.10;99.90;;;;;;5099375;28;20402;-61
2022/04/17 05:18:16;;;;;;;9.07;5.00;;;6.10;99.90;;;;;;5116721;28;20031;-60
2022/04/17 05:20:42;;;;;;;4.88;4.07;;;6.20;99.90;;;;;;5099769;28;20337;-59
2022/04/17 05:23:17;;;;;;;7.45;4.45;;;6.20;99.90;;;;;;5099471;28;20066;-60
2022/04/17 05:25:44;;;;;;;6.50;4.97;;;6.20;99.90;;;;;;5116592;28;20039;-59
2022/04/17 05:28:10;;;;;;;6.00;5.00;;;6.20;99.90;;;;;;5116647;28;20038;-59
2022/04/17 05:30:36;;;;;;;5.85;4.75;;;6.30;99.90;;;;;;5099445;28;20039;-59
2022/04/17 05:33:02;;;;;;;7.15;4.95;;;6.30;99.90;;;;;;5099429;28;20398;-59
2022/04/17 05:35:28;;;;;;;5.80;4.55;;;6.40;99.90;;;;;;5117347;28;20041;-60
2022/04/17 05:37:53;;;;;;;5.20;4.70;;;6.40;99.90;;;;;;5116526;28;20031;-59
2022/04/17 05:40:19;;;;;;;7.95;5.00;;;6.50;99.90;;;;;;5099575;28;20378;-60
2022/04/17 05:42:45;;;;;;;5.90;4.50;;;6.50;99.90;;;;;;5117069;28;20031;-60
2022/04/17 05:45:11;;;;;;;5.53;4.55;;;6.50;99.90;;;;;;5117314;28;20442;-60
2022/04/17 05:47:37;;;;;;;6.65;4.32;;;6.60;99.90;;;;;;5116407;28;20031;-59
2022/04/17 05:50:03;;;;;;;5.35;4.40;;;6.70;99.90;;;;;;5116304;28;20032;-60
2022/04/17 05:52:30;;;;;;;6.95;4.38;;;6.80;99.90;;;;;;5116245;28;20028;-60
2022/04/17 05:54:57;;;;;;;6.32;4.38;;;6.80;99.90;;;;;;5116955;28;20032;-60
2022/04/17 05:57:23;;;;;;;7.45;4.22;;;6.90;99.90;;;;;;5117022;28;20103;-59
2022/04/17 05:59:49;;;;;;;4.28;3.85;;;7.00;99.90;;;;;;5116961;28;20110;-59
2022/04/17 06:02:15;;;;;;;4.47;3.50;;;7.20;99.90;;;;;;5116362;28;20028;-59
2022/04/17 06:04:42;;;;;;;5.20;3.90;;;7.30;99.90;;;;;;5116942;28;20063;-59
2022/04/17 06:07:08;;;;;;;7.30;3.70;;;7.40;99.90;;;;;;5116938;28;20036;-59
2022/04/17 06:09:35;;;;;;;4.10;3.65;;;7.50;99.90;;;;;;5099137;28;20402;-60
2022/04/17 06:12:01;;;;;;;4.47;3.80;;;7.60;99.90;;;;;;5116887;28;20390;-62
2022/04/17 06:14:27;;;;;;;4.38;3.33;;;7.60;99.90;;;;;;5116028;28;20081;-61
2022/04/17 06:16:53;;;;;;;3.80;3.50;;;7.70;99.90;;;;;;5117413;28;20097;-61
2022/04/17 06:19:18;;;;;;;5.35;3.63;;;7.80;99.90;;;;;;5116176;28;20036;-60
2022/04/17 06:21:44;;;;;;;4.55;3.28;;;7.90;99.90;;;;;;5116823;28;20032;-60
2022/04/17 06:24:10;;;;;;;4.63;3.25;;;7.80;99.90;;;;;;5116796;28;20032;-60
2022/04/17 06:26:36;;;;;;;5.05;3.38;;;7.90;99.90;;;;;;5118116;28;20074;-60
2022/04/17 06:29:08;;;;;;;3.72;3.30;;;8.00;99.90;;;;;;5120740;28;20043;-61
2022/04/17 06:31:34;;;;;;;3.45;3.13;;;8.10;99.90;;;;;;5103115;28;20081;-60
2022/04/17 06:34:01;;;;;;;8.10;3.50;;;8.20;99.90;;;;;;5119724;28;20299;-59
2022/04/17 06:36:27;;;;;;;4.82;3.53;;;8.30;99.90;;;;;;5102555;28;20032;-60
2022/04/17 06:38:53;;;;;;;4.43;3.35;;;8.50;99.90;;;;;;5120133;28;20032;-60
2022/04/17 06:41:18;;;;;;;3.72;3.38;;;8.60;99.90;;;;;;5120113;28;20126;-59
2022/04/17 06:43:44;;;;;;;4.03;3.00;;;8.70;99.90;;;;;;5119703;28;20430;-62
2022/04/17 06:46:10;;;;;;;3.70;3.22;;;8.80;99.90;;;;;;5119715;28;20092;-60
2022/04/17 06:48:36;;;;;;;5.63;3.40;;;8.80;99.90;;;;;;5119307;28;20050;-60
2022/04/17 06:51:02;;;;;;;4.57;3.30;;;8.90;99.90;;;;;;5120396;28;20032;-59
2022/04/17 06:53:27;;;;;;;3.67;3.25;;;9.10;99.90;;;;;;5119956;28;20023;-59
2022/04/17 06:55:53;;;;;;;4.10;2.80;;;9.10;99.90;;;;;;5102152;28;20036;-59
2022/04/17 06:58:20;;;;;;;3.70;2.72;;;9.20;99.90;;;;;;5119113;28;20023;-60
2022/04/17 07:00:46;;;;;;;3.42;3.13;;;9.30;99.90;;;;;;5119234;28;20043;-59
2022/04/17 07:03:15;;;;;;;5.22;2.97;;;9.50;99.90;;;;;;5102127;28;20039;-59
2022/04/17 07:05:42;;;;;;;3.15;2.83;;;9.60;99.90;;;;;;5119789;28;20036;-59
2022/04/17 07:08:08;;;;;;;12.57;3.10;;;9.60;99.90;;;;;;5119763;28;20169;-59
2022/04/17 07:10:39;;;;;;;3.40;3.00;;;9.70;99.90;;;;;;5118771;28;20118;-59
2022/04/17 07:13:06;;;;;;;3.22;2.70;;;9.90;99.90;;;;;;5118883;28;20024;-60
2022/04/17 07:15:32;;;;;;;3.65;3.33;;;10.10;99.90;;;;;;5119523;28;20023;-60
2022/04/17 07:17:58;;;;;;;3.20;2.90;;;10.10;99.90;;;;;;5118702;28;20463;-60
2022/04/17 07:20:24;;;;;;;7.97;2.88;;;10.00;99.90;;;;;;5119476;28;20027;-60
2022/04/17 07:22:51;;;;;;;3.50;2.90;;;10.10;99.90;;;;;;5119391;28;20047;-60
2022/04/17 07:25:17;;;;;;;3.25;2.67;;;10.20;99.90;;;;;;5119291;28;20077;-59
2022/04/17 07:27:45;;;;;;;4.38;2.80;;;10.20;99.90;;;;;;5119292;28;20080;-59
2022/04/17 07:30:15;;;;;;;3.83;2.67;;;10.20;99.90;;;;;;5119217;28;20028;-60
2022/04/17 07:32:46;;;;;;;3.20;2.78;;;10.30;99.90;;;;;;5119153;28;20031;-59
2022/04/17 07:35:14;;;;;;;2.78;2.42;;;10.40;99.90;;;;;;5119208;28;20133;-60
2022/04/17 07:37:39;;;;;;;3.03;2.15;;;10.60;99.90;;;;;;5118565;28;20032;-59
2022/04/17 07:40:14;;;;;;;3.17;2.28;;;10.80;99.90;;;;;;5119104;28;20035;-58
2022/04/17 07:42:42;;;;;;;2.17;1.92;;;10.90;99.90;;;;;;5119773;27;20027;-60
2022/04/17 07:45:08;;;;;;;2.05;1.70;;;11.00;99.90;;;;;;5119583;27;20122;-59
2022/04/17 07:47:34;;;;;;;3.83;2.13;;;11.00;99.90;;;;;;5119029;28;20041;-59
2022/04/17 07:50:00;;;;;;;4.45;2.15;;;11.10;99.90;;;;;;5118302;28;20028;-58
2022/04/17 07:52:26;;;;;;;5.63;1.88;;;11.10;99.90;;;;;;5118121;28;20307;-58
2022/04/17 07:54:54;;;;;;;3.55;1.95;;;11.40;99.90;;;;;;5119081;28;20047;-59
2022/04/17 07:57:20;;;;;;;2.75;1.80;;;11.50;99.90;;;;;;5118097;28;20092;-60
2022/04/17 07:59:46;;;;;;;2.33;2.00;;;11.50;99.90;;;;;;5118722;28;20119;-59
2022/04/17 08:02:21;;;;;;;2.90;1.98;;;11.60;99.90;;;;;;5118577;28;20074;-60
2022/04/17 08:04:50;;;;;;;2.95;2.03;;;11.60;99.90;;;;;;5117906;28;20444;-59
2022/04/17 08:07:16;;;;;;;3.05;2.00;;;11.50;99.90;;;;;;5117878;28;20314;-59
2022/04/17 08:09:42;;;;;;;4.10;2.35;;;11.60;99.90;;;;;;5117928;28;20119;-60
2022/04/17 08:12:08;;;;;;;36.25;3.67;;;11.70;99.90;;;;;;5118519;28;20031;-59
2022/04/17 08:14:33;;;;;;;4.75;2.20;;;11.80;99.90;;;;;;5118408;28;20115;-60
2022/04/17 08:16:59;;;;;;;2.53;2.15;;;11.80;99.90;;;;;;5117741;28;20024;-60
2022/04/17 08:19:25;;;;;;;2.33;2.13;;;11.90;99.90;;;;;;5100555;28;20096;-60
2022/04/17 08:21:51;;;;;;;2.28;2.08;;;12.00;99.90;;;;;;5100599;28;20059;-60
2022/04/17 08:24:18;;;;;;;2.53;2.30;;;12.10;99.90;;;;;;5117486;28;20036;-59
2022/04/17 08:26:44;;;;;;;3.05;2.33;;;12.00;99.90;;;;;;5117497;28;20062;-59
2022/04/17 08:29:10;;;;;;;2.35;2.15;;;12.00;99.90;;;;;;5118049;28;20078;-60
2022/04/17 08:31:36;;;;;;;3.13;2.05;;;11.90;99.90;;;;;;5117320;28;20088;-59
2022/04/17 08:34:03;;;;;;;2.85;2.25;;;11.90;99.90;;;;;;5118497;28;20036;-61
2022/04/17 08:36:28;;;;;;;2.97;2.33;;;12.10;99.90;;;;;;5118049;28;20412;-59
2022/04/17 08:38:54;;;;;;;2.35;2.15;;;12.30;99.90;;;;;;5118018;28;20035;-59
2022/04/17 08:41:22;;;;;;;3.45;1.90;;;12.50;99.90;;;;;;5117929;28;20031;-59
2022/04/17 08:43:48;;;;;;;3.53;1.88;;;12.60;99.90;;;;;;5116962;28;20092;-59
2022/04/17 08:46:14;;;;;;;2.08;1.75;;;12.50;99.90;;;;;;5117191;28;20119;-60
2022/04/17 08:48:40;;;;;;;3.47;2.10;;;12.60;99.90;;;;;;5117688;28;20035;-58
2022/04/17 08:51:06;;;;;;;3.55;2.10;;;12.60;99.90;;;;;;5116271;28;20387;-61
2022/04/17 08:53:34;;;;;;;3.17;2.20;;;12.60;99.90;;;;;;5100061;28;20024;-59
2022/04/17 08:56:00;;;;;;;2.30;2.10;;;12.80;99.90;;;;;;5116916;28;20403;-60
2022/04/17 08:58:27;;;;;;;2.65;2.33;;;13.00;99.90;;;;;;5117156;28;20031;-59
2022/04/17 09:00:53;;;;;;;2.83;2.08;;;13.10;99.90;;;;;;5116891;28;20302;-60
2022/04/17 09:03:19;;;;;;;3.95;2.22;;;13.20;99.90;;;;;;5116963;28;20027;-60
2022/04/17 09:05:45;;;;;;;2.13;1.92;;;13.40;99.90;;;;;;5117026;28;20043;-59
2022/04/17 09:08:13;;;;;;;3.55;2.10;;;13.40;99.90;;;;;;5116907;28;20303;-59
2022/04/17 09:10:39;;;;;;;4.53;2.50;;;13.50;99.90;;;;;;5100044;28;20031;-61
2022/04/17 09:13:05;;;;;;;3.25;2.53;;;13.40;99.40;;;;;;5100542;28;20031;-60
2022/04/17 09:15:34;;;;;;;2.70;1.90;;;13.30;99.50;;;;;;5116797;28;20110;-60
2022/04/17 09:18:00;;;;;;;2.40;2.20;;;13.30;99.60;;;;;;5116691;28;20095;-59
2022/04/17 09:20:27;;;;;;;3.47;2.65;;;13.30;99.90;;;;;;5117600;28;20035;-60
2022/04/17 09:22:56;;;;;;;2.80;2.30;;;13.50;99.90;;;;;;5099493;28;20057;-59
2022/04/17 09:25:23;;;;;;;3.40;2.10;;;13.60;99.90;;;;;;5099646;28;20031;-59
2022/04/17 09:28:11;;;;;;;3.10;2.50;;;13.80;99.70;;;;;;5117322;28;20418;-59
2022/04/17 09:30:39;;;;;;;7.45;2.00;;;14.00;99.00;;;;;;5117392;28;20134;-59
2022/04/17 09:33:10;;;;;;;4.93;2.15;;;14.10;98.20;;;;;;5117353;28;20028;-59
2022/04/17 09:35:36;;;;;;;2.55;2.22;;;14.30;97.50;;;;;;5117274;28;20406;-59
2022/04/17 09:38:09;;;;;;;2.67;2.33;;;14.30;97.00;;;;;;5117297;28;20110;-58
2022/04/17 09:40:37;;;;;;;3.15;2.17;;;14.20;98.20;;;;;;5099822;28;20314;-59
2022/04/17 09:43:18;;;;;;;3.05;2.20;;;14.40;99.00;;;;;;5116218;28;20031;-59
2022/04/17 09:46:20;;;;;;;3.72;2.42;;;14.60;97.80;;;;;;5117125;28;20035;-59
2022/04/17 09:48:45;;;;;;;2.33;2.05;;;14.70;97.40;;;;;;5035321;28;20412;-59
2022/04/17 09:51:29;;;;;;;2.47;2.22;;;14.60;96.70;;;;;;5100711;28;20055;-60
2022/04/17 09:54:06;;;;;;;3.70;2.38;;;14.60;96.70;;;;;;5116384;28;20035;-60
2022/04/17 09:56:40;;;;;;;4.00;2.53;;;14.80;97.80;;;;;;5117109;28;20043;-60
2022/04/17 09:59:19;;;;;;;2.05;1.83;;;14.80;96.20;;;;;;5099464;28;20077;-59
2022/04/17 10:01:52;;;;;;;6.80;2.28;;;15.00;96.40;;;;;;5119003;28;20443;-59
2022/04/17 10:04:20;;;;;;;2.65;2.45;;;15.30;96.60;;;;;;5121465;28;20156;-60
2022/04/17 10:06:50;;;;;;;2.83;2.00;;;15.40;96.80;;;;;;5103246;28;20447;-58
2022/04/17 10:09:17;;;;;;;2.40;2.05;;;15.60;96.60;;;;;;5120737;28;20043;-60
2022/04/17 10:11:43;;;;;;;8.57;2.70;;;15.90;96.40;;;;;;5120458;28;20024;-60
2022/04/17 10:14:09;;;;;;;2.70;2.30;;;15.90;95.70;;;;;;5120815;28;20107;-61
2022/04/17 10:16:41;;;;;;;2.38;2.10;;;15.80;95.70;;;;;;5119994;28;20052;-59
2022/04/17 10:19:15;;;;;;;2.20;2.00;;;16.00;95.90;;;;;;5120704;28;20031;-60
2022/04/17 10:21:41;;;;;;;4.93;2.17;;;16.10;95.30;;;;;;5119848;28;20028;-60
2022/04/17 10:24:11;;;;;;;2.55;2.35;;;16.10;94.60;;;;;;5120586;28;20081;-60
2022/04/17 10:26:41;;;;;;;2.72;2.53;;;16.20;95.30;;;;;;5120616;28;20020;-60
2022/04/17 10:29:10;;;;;;;3.10;2.42;;;16.40;94.80;;;;;;5120730;28;20035;-60
2022/04/17 10:32:04;;;;;;;2.45;2.20;;;16.50;93.80;;;;;;5120152;28;20055;-59
2022/04/17 10:35:02;;;;;;;4.30;2.17;;;16.70;92.50;;;;;;5120381;28;20387;-60
2022/04/17 10:38:11;;;;;;;2.72;2.35;;;16.90;93.30;;;;;;5120565;28;20413;-59
2022/04/17 10:40:37;;;;;;;3.03;2.72;;;16.90;92.50;;;;;;5120473;28;20027;-60
2022/04/17 10:43:04;;;;;;;2.47;2.28;;;16.90;92.30;;;;;;5119310;28;20042;-60
2022/04/17 10:45:33;;;;;;;3.17;2.10;;;17.20;93.10;;;;;;5120347;28;20027;-60
2022/04/17 10:48:12;;;;;;;2.85;2.30;;;18.10;90.00;;;;;;5120106;28;20032;-59
2022/04/17 10:50:42;;;;;;;3.85;2.33;;;18.00;87.90;;;;;;5119293;28;20039;-59
2022/04/17 10:53:52;;;;;;;5.05;2.40;;;18.60;87.40;;;;;;5120034;28;20028;-60
2022/04/17 10:56:19;;;;;;;4.68;2.40;;;19.70;83.80;;;;;;5072471;28;20433;-61
2022/04/17 10:58:56;;;;;;;5.75;2.42;;;20.90;80.90;;;;;;5119346;28;20093;-60
2022/04/17 11:01:41;;;;;;;2.65;2.33;;;21.20;80.60;;;;;;5119816;28;20023;-61
2022/04/17 11:04:22;;;;;;;3.08;2.53;;;22.50;76.30;;;;;;5119500;28;20375;-60
2022/04/17 11:06:53;;;;;;;2.57;2.37;;;23.70;73.40;;;;;;5119043;28;20054;-61
2022/04/17 11:09:22;;;;;;;2.60;2.40;;;24.60;65.50;;;;;;5119671;28;20413;-60
2022/04/17 11:11:49;;;;;;;2.65;2.08;;;24.40;63.50;;;;;;5118783;28;20042;-60
2022/04/17 11:14:23;;;;;;;3.55;2.20;;;23.90;61.00;;;;;;5118099;28;20039;-60
2022/04/17 11:17:08;;;;;;;5.45;2.50;;;24.60;59.60;;;;;;5119670;28;20089;-60
2022/04/17 11:19:39;;;;;;;4.25;2.75;;;24.60;57.30;;;;;;5102426;28;20403;-60
2022/04/17 11:22:07;;;;;;;2.53;2.20;;;24.30;56.00;;;;;;5119750;28;20034;-58
2022/04/17 11:24:54;;;;;;;3.25;2.45;;;24.80;55.80;;;;;;5118664;28;20399;-60
2022/04/17 11:27:47;;;;;;;3.63;2.10;;;24.60;54.70;;;;;;5119375;28;20105;-60
2022/04/17 11:30:13;;;;;;;5.88;2.65;;;24.90;55.10;;;;;;5116259;28;20119;-58
2022/04/17 11:32:39;;;;;;;4.15;2.47;;;25.50;52.40;;;;;;5119306;28;20027;-60
2022/04/17 11:35:16;;;;;;;2.40;2.20;;;24.90;52.20;;;;;;5119313;28;20023;-60
2022/04/17 11:37:56;;;;;;;3.03;2.50;;;25.80;51.60;;;;;;5118627;28;20058;-59
2022/04/17 11:40:24;;;;;;;2.45;2.25;;;25.40;51.40;;;;;;5119156;28;20196;-59
2022/04/17 11:42:53;;;;;;;3.38;2.45;;;24.80;50.60;;;;;;5101134;28;20019;-59
2022/04/17 11:45:21;;;;;;;4.20;2.95;;;24.80;53.00;;;;;;5118327;28;20122;-59
2022/04/17 11:47:48;;;;;;;4.97;3.13;;;25.20;52.80;;;;;;5101192;28;20027;-59
2022/04/17 11:50:31;;;;;;;4.55;3.15;;;26.10;50.80;;;;;;5118749;28;20089;-59
2022/04/17 11:53:03;;;;;;;3.58;2.53;;;26.20;50.20;;;;;;5101043;28;20295;-59
2022/04/17 11:55:32;;;;;;;3.78;2.70;;;25.60;48.50;;;;;;5118192;28;20027;-59
2022/04/17 11:57:59;;;;;;;3.20;2.90;;;26.10;49.20;;;;;;5118022;28;20031;-59
2022/04/17 12:00:26;;;;;;;3.15;2.60;;;26.00;48.50;;;;;;5117992;28;20074;-59
2022/04/17 12:03:00;;;;;;;3.10;2.80;;;27.20;47.40;;;;;;5118486;28;20272;-59
2022/04/17 12:05:27;;;;;;;3.80;2.58;;;26.60;47.10;;;;;;5117803;28;20490;-58
2022/04/17 12:08:06;;;;;;;2.95;2.63;;;27.20;46.60;;;;;;5118554;28;20107;-59
2022/04/17 12:10:32;;;;;;;3.70;2.70;;;28.00;45.70;;;;;;5117662;28;20031;-60
2022/04/17 12:13:09;;;;;;;3.88;3.35;;;27.60;45.90;;;;;;5118460;28;20016;-59
2022/04/17 12:15:35;;;;;;;2.88;2.67;;;27.80;45.70;;;;;;5118365;28;20065;-59
2022/04/17 12:18:01;;;;;;;3.15;2.80;;;28.50;43.90;;;;;;5118344;28;20027;-59
2022/04/17 12:20:27;;;;;;;2.65;2.45;;;28.50;43.60;;;;;;5117673;28;20038;-59
2022/04/17 12:22:53;;;;;;;2.85;2.65;;;29.00;44.30;;;;;;5117512;28;20102;-59
2022/04/17 12:25:25;;;;;;;3.45;2.17;;;28.00;44.40;;;;;;5117341;28;20042;-59
2022/04/17 12:27:53;;;;;;;2.70;2.40;;;28.70;42.80;;;;;;5118206;28;20042;-59
2022/04/17 12:30:24;;;;;;;2.78;2.40;;;28.80;42.60;;;;;;5118005;28;20372;-59
2022/04/17 12:32:55;;;;;;;2.50;2.30;;;29.20;41.80;;;;;;5118211;28;20156;-60
2022/04/17 12:35:29;;;;;;;2.40;2.20;;;29.70;41.00;;;;;;5118126;28;20296;-60
2022/04/17 12:38:05;;;;;;;2.40;2.20;;;30.60;39.80;;;;;;5118145;28;20329;-60
2022/04/17 12:40:38;;;;;;;2.40;1.67;;;30.60;38.30;;;;;;5117325;28;20084;-59
2022/04/17 12:43:18;;;;;;;2.13;1.80;;;29.20;39.60;;;;;;5100698;28;20031;-60
2022/04/17 12:46:00;;;;;;;1.80;1.70;;;30.00;39.60;;;;;;5117793;28;20333;-59
2022/04/17 12:48:31;;;;;;;1.63;1.40;;;29.70;39.70;;;;;;5117817;28;20034;-59
2022/04/17 12:50:59;;;;;;;2.05;1.80;;;30.30;38.20;;;;;;5117854;28;20027;-59
2022/04/17 12:53:26;;;;;;;1.60;1.50;;;29.90;37.90;;;;;;5100165;28;20369;-59
2022/04/17 12:55:53;;;;;;;2.95;1.80;;;31.40;36.40;;;;;;5117603;28;20023;-59
2022/04/17 12:58:20;;;;;;;2.25;1.63;;;29.90;36.70;;;;;;5099936;28;20023;-60
2022/04/17 13:00:55;;;;;;;1.80;1.60;;;30.30;37.30;;;;;;5117604;28;20328;-59
2022/04/17 13:03:23;;;;;;;3.53;1.95;;;31.00;37.40;;;;;;5116822;28;20032;-58
2022/04/17 13:06:03;;;;;;;2.63;1.92;;;31.70;35.20;;;;;;5117512;28;20384;-58
2022/04/17 13:08:29;;;;;;;3.55;2.30;;;32.70;35.70;;;;;;5117510;28;20024;-58
2022/04/17 13:10:55;;;;;;;2.33;2.00;;;32.70;34.30;;;;;;5116653;28;20034;-59